Time;durP1;ratioP1;P1;durP2;ratioP2;P2;SDS_P1;SDS_P2;PMS_P1;PMS_P2;Temp;Humidity;BMP_temperature;BMP_pressure;BME280_temperature;BME280_humidity;BME280_pressure;Samples;Min_cycle;Max_cycle;Signal;HPM_P1;HPM_P2
2023/07/23 00:00:26;;;;;;;11.75;8.00;;;14.80;99.90;;;;;;5092322;28;20040;-61
2023/07/23 00:02:52;;;;;;;13.02;7.68;;;14.80;99.90;;;;;;5092258;28;20040;-62
2023/07/23 00:05:23;;;;;;;13.35;7.90;;;14.80;99.90;;;;;;5094405;28;20032;-62
2023/07/23 00:07:49;;;;;;;12.70;7.72;;;14.80;99.90;;;;;;5094693;28;20036;-62
2023/07/23 00:10:15;;;;;;;11.57;7.18;;;14.80;99.90;;;;;;5096072;28;20111;-61
2023/07/23 00:12:41;;;;;;;10.27;7.28;;;14.80;99.90;;;;;;5094632;28;20462;-62
2023/07/23 00:15:07;;;;;;;12.07;7.35;;;14.80;99.90;;;;;;5095426;28;20055;-62
2023/07/23 00:17:32;;;;;;;14.75;8.00;;;14.70;99.90;;;;;;5096006;28;20090;-62
2023/07/23 00:19:58;;;;;;;17.00;8.48;;;14.80;99.90;;;;;;5094765;28;20075;-61
2023/07/23 00:22:25;;;;;;;12.10;7.22;;;14.80;99.90;;;;;;5078038;28;20048;-62
2023/07/23 00:24:56;;;;;;;11.23;7.05;;;14.70;99.90;;;;;;5094040;28;20047;-62
2023/07/23 00:27:23;;;;;;;14.75;7.70;;;14.70;99.90;;;;;;5093561;28;20052;-62
2023/07/23 00:29:48;;;;;;;12.95;8.30;;;14.70;99.90;;;;;;5095161;28;20040;-62
2023/07/23 00:32:14;;;;;;;13.27;8.68;;;14.70;99.90;;;;;;5128798;27;20373;-61
2023/07/23 00:34:40;;;;;;;13.00;8.50;;;14.70;99.90;;;;;;5092935;28;20165;-61
2023/07/23 00:37:06;;;;;;;14.25;8.70;;;14.70;99.90;;;;;;5095715;28;20381;-61
2023/07/23 00:39:31;;;;;;;13.43;8.10;;;14.70;99.90;;;;;;5093170;28;20039;-62
2023/07/23 00:41:57;;;;;;;14.98;9.52;;;14.70;99.90;;;;;;5128333;27;20458;-62
2023/07/23 00:44:23;;;;;;;12.60;8.57;;;14.70;99.90;;;;;;5128235;27;20047;-61
2023/07/23 00:46:50;;;;;;;12.70;9.18;;;14.70;99.90;;;;;;5127265;27;20094;-62
2023/07/23 00:49:16;;;;;;;12.85;8.02;;;14.70;99.90;;;;;;5094277;28;20084;-62
2023/07/23 00:51:41;;;;;;;13.30;8.43;;;14.70;99.90;;;;;;5094858;28;20090;-61
2023/07/23 00:54:07;;;;;;;12.30;7.55;;;14.70;99.90;;;;;;5094270;28;20427;-62
2023/07/23 00:56:35;;;;;;;11.85;7.97;;;14.60;99.90;;;;;;5127855;27;20048;-62
2023/07/23 00:59:01;;;;;;;14.55;8.13;;;14.60;99.90;;;;;;5093615;28;20117;-61
2023/07/23 01:01:30;;;;;;;14.35;8.27;;;14.60;99.90;;;;;;5093327;28;20120;-61
2023/07/23 01:03:55;;;;;;;11.48;7.20;;;14.60;99.90;;;;;;5093660;28;20044;-61
2023/07/23 01:06:22;;;;;;;12.73;7.32;;;14.70;99.90;;;;;;5076994;28;20043;-61
2023/07/23 01:08:49;;;;;;;13.82;8.27;;;14.60;99.90;;;;;;5092309;28;20098;-61
2023/07/23 01:11:16;;;;;;;11.23;7.03;;;14.60;99.90;;;;;;5095203;28;20392;-61
2023/07/23 01:13:43;;;;;;;12.30;7.15;;;14.60;99.90;;;;;;5127318;27;20072;-61
2023/07/23 01:16:10;;;;;;;10.73;6.95;;;14.60;99.90;;;;;;5076120;28;20052;-61
2023/07/23 01:18:40;;;;;;;12.73;6.85;;;14.60;99.90;;;;;;5127776;27;20385;-62
2023/07/23 01:21:06;;;;;;;11.30;7.05;;;14.60;99.90;;;;;;5093401;28;20104;-62
2023/07/23 01:23:32;;;;;;;11.35;7.90;;;14.60;99.90;;;;;;5126075;27;20434;-62
2023/07/23 01:25:58;;;;;;;12.07;7.53;;;14.70;99.90;;;;;;5093560;28;20055;-62
2023/07/23 01:28:24;;;;;;;14.20;8.20;;;14.60;99.90;;;;;;5093376;28;20040;-61
2023/07/23 01:30:51;;;;;;;15.05;8.48;;;14.60;99.90;;;;;;5092172;28;20051;-61
2023/07/23 01:33:17;;;;;;;17.08;8.77;;;14.60;99.90;;;;;;5094717;28;20036;-61
2023/07/23 01:35:45;;;;;;;15.90;9.63;;;14.70;99.90;;;;;;5091819;28;20497;-61
2023/07/23 01:38:12;;;;;;;14.05;8.18;;;14.70;99.90;;;;;;5094583;28;20036;-61
2023/07/23 01:40:39;;;;;;;13.25;7.40;;;14.70;99.90;;;;;;5094238;28;20036;-62
2023/07/23 01:43:05;;;;;;;11.48;6.75;;;14.60;99.90;;;;;;5092257;28;20384;-61
2023/07/23 01:45:31;;;;;;;16.02;8.35;;;14.70;99.90;;;;;;5093265;28;20123;-61
2023/07/23 01:47:56;;;;;;;14.05;8.00;;;14.70;99.90;;;;;;5107968;28;20572;-61
2023/07/23 01:50:22;;;;;;;12.98;7.47;;;14.70;99.90;;;;;;5091979;28;20055;-62
2023/07/23 01:52:48;;;;;;;12.32;7.70;;;14.70;99.90;;;;;;5093347;28;20574;-62
2023/07/23 01:55:14;;;;;;;13.63;8.57;;;14.80;99.90;;;;;;5094110;28;20044;-61
2023/07/23 01:57:40;;;;;;;13.75;8.40;;;14.70;99.90;;;;;;5092764;28;20085;-61
2023/07/23 02:00:07;;;;;;;13.93;7.97;;;14.80;99.90;;;;;;5126804;27;20118;-62
2023/07/23 02:02:33;;;;;;;13.68;7.80;;;14.80;99.90;;;;;;5092690;28;20370;-61
2023/07/23 02:04:59;;;;;;;13.52;8.38;;;14.70;99.90;;;;;;5125378;27;20093;-61
2023/07/23 02:07:24;;;;;;;15.27;8.57;;;14.70;99.90;;;;;;5094183;28;20043;-62
2023/07/23 02:09:51;;;;;;;15.73;8.73;;;14.80;99.90;;;;;;5093329;28;20040;-61
2023/07/23 02:12:17;;;;;;;12.77;8.07;;;14.70;99.90;;;;;;5091938;28;20044;-61
2023/07/23 02:14:43;;;;;;;15.25;9.07;;;14.80;99.90;;;;;;5075042;28;20048;-61
2023/07/23 02:17:09;;;;;;;11.30;7.43;;;14.80;99.90;;;;;;5093742;28;20078;-61
2023/07/23 02:19:36;;;;;;;14.32;7.38;;;14.70;99.90;;;;;;5125496;27;20075;-61
2023/07/23 02:22:03;;;;;;;14.32;8.20;;;14.80;99.90;;;;;;5093338;28;20092;-61
2023/07/23 02:24:28;;;;;;;15.35;8.75;;;14.70;99.90;;;;;;5092093;28;20036;-61
2023/07/23 02:26:54;;;;;;;13.15;7.80;;;14.70;99.90;;;;;;5090539;28;20040;-62
2023/07/23 02:29:20;;;;;;;14.60;9.02;;;14.60;99.90;;;;;;5092244;28;20040;-61
2023/07/23 02:31:45;;;;;;;12.43;7.22;;;14.70;99.90;;;;;;5092079;28;20032;-61
2023/07/23 02:34:11;;;;;;;14.32;8.43;;;14.70;99.90;;;;;;5091210;28;20044;-61
2023/07/23 02:36:37;;;;;;;13.82;7.85;;;14.70;99.90;;;;;;5093279;28;20046;-62
2023/07/23 02:39:03;;;;;;;14.90;7.20;;;14.60;99.90;;;;;;5090995;28;20098;-61
2023/07/23 02:41:29;;;;;;;14.20;7.10;;;14.60;99.90;;;;;;5091719;28;20076;-61
2023/07/23 02:43:55;;;;;;;12.13;7.00;;;14.60;99.90;;;;;;5093176;28;20036;-62
2023/07/23 02:46:20;;;;;;;12.45;7.40;;;14.60;99.90;;;;;;5092488;28;20086;-61
2023/07/23 02:48:46;;;;;;;12.20;7.47;;;14.60;99.90;;;;;;5092262;28;20420;-62
2023/07/23 02:51:12;;;;;;;12.43;7.15;;;14.60;99.90;;;;;;5092928;28;20044;-61
2023/07/23 02:53:37;;;;;;;12.63;7.05;;;14.50;99.90;;;;;;5091961;28;20117;-61
2023/07/23 02:56:03;;;;;;;12.98;7.80;;;14.60;99.90;;;;;;5093001;28;20071;-61
2023/07/23 02:58:29;;;;;;;16.03;7.67;;;14.50;99.90;;;;;;5092537;28;20028;-61
2023/07/23 03:00:55;;;;;;;13.32;7.53;;;14.60;99.90;;;;;;5090722;28;20040;-61
2023/07/23 03:03:21;;;;;;;13.75;7.57;;;14.60;99.90;;;;;;5091504;28;20078;-61
2023/07/23 03:05:47;;;;;;;11.52;7.35;;;14.60;99.90;;;;;;5091177;28;20036;-61
2023/07/23 03:08:12;;;;;;;11.73;7.20;;;14.60;99.90;;;;;;5090506;28;20127;-61
2023/07/23 03:10:42;;;;;;;12.35;7.78;;;14.60;99.90;;;;;;5091226;28;20047;-61
2023/07/23 03:13:08;;;;;;;12.88;7.47;;;14.50;99.90;;;;;;5091489;28;20096;-61
2023/07/23 03:15:34;;;;;;;17.92;8.07;;;14.60;99.90;;;;;;5091615;28;20044;-61
2023/07/23 03:18:01;;;;;;;15.15;8.65;;;14.50;99.90;;;;;;5092077;28;20119;-61
2023/07/23 03:20:27;;;;;;;13.70;7.95;;;14.60;99.90;;;;;;5071197;28;20445;-61
2023/07/23 03:22:53;;;;;;;12.45;7.55;;;14.60;99.90;;;;;;5071562;28;20127;-61
2023/07/23 03:25:18;;;;;;;11.88;8.00;;;14.60;99.90;;;;;;5072373;28;20106;-61
2023/07/23 03:27:44;;;;;;;14.38;8.32;;;14.60;99.90;;;;;;5070754;28;20033;-61
2023/07/23 03:30:11;;;;;;;13.38;7.82;;;14.60;99.90;;;;;;5072030;28;20469;-61
2023/07/23 03:32:37;;;;;;;12.65;6.88;;;14.60;99.90;;;;;;5070962;28;20044;-61
2023/07/23 03:35:02;;;;;;;13.90;8.15;;;14.60;99.90;;;;;;5071913;28;20496;-61
2023/07/23 03:37:28;;;;;;;15.30;8.10;;;14.60;99.90;;;;;;5069770;28;20048;-61
2023/07/23 03:39:54;;;;;;;12.43;7.82;;;14.60;99.90;;;;;;5071833;28;20044;-65
2023/07/23 03:42:20;;;;;;;15.27;7.82;;;14.60;99.90;;;;;;5053674;28;20055;-66
2023/07/23 03:44:45;;;;;;;14.55;8.50;;;14.60;99.90;;;;;;5071583;28;20076;-66
2023/07/23 03:47:11;;;;;;;14.70;8.02;;;14.60;99.90;;;;;;5085985;28;20119;-66
2023/07/23 03:49:37;;;;;;;15.05;8.07;;;14.60;99.90;;;;;;5106915;28;20052;-66
2023/07/23 03:52:04;;;;;;;12.80;7.50;;;14.60;99.90;;;;;;5090783;28;20063;-66
2023/07/23 03:54:30;;;;;;;14.02;8.30;;;14.60;99.90;;;;;;5090711;28;20503;-66
2023/07/23 03:56:56;;;;;;;14.23;7.97;;;14.60;99.90;;;;;;5091178;28;20036;-65
2023/07/23 03:59:21;;;;;;;12.73;7.85;;;14.60;99.90;;;;;;5090947;28;20093;-66
2023/07/23 04:01:47;;;;;;;12.80;8.25;;;14.60;99.90;;;;;;5124211;28;20097;-66
2023/07/23 04:04:13;;;;;;;10.52;7.43;;;14.60;99.90;;;;;;5090437;28;20431;-65
2023/07/23 04:06:39;;;;;;;17.50;7.72;;;14.70;99.90;;;;;;5092023;28;20384;-65
2023/07/23 04:09:04;;;;;;;14.63;8.52;;;14.70;99.90;;;;;;5092120;28;20449;-65
2023/07/23 04:11:30;;;;;;;16.60;8.43;;;14.60;99.90;;;;;;5123861;28;20059;-65
2023/07/23 04:13:56;;;;;;;12.80;7.60;;;14.70;99.90;;;;;;5091543;28;20036;-65
2023/07/23 04:16:21;;;;;;;16.00;8.75;;;14.70;99.90;;;;;;5092020;28;20116;-65
2023/07/23 04:18:51;;;;;;;14.50;7.85;;;14.70;99.90;;;;;;5090812;28;20039;-65
2023/07/23 04:21:24;;;;;;;13.13;7.70;;;14.70;99.90;;;;;;5092180;28;20040;-65
2023/07/23 04:23:51;;;;;;;12.05;7.55;;;14.70;99.90;;;;;;5090275;28;20040;-65
2023/07/23 04:26:19;;;;;;;13.32;7.55;;;14.70;99.90;;;;;;5091249;28;20063;-65
2023/07/23 04:28:45;;;;;;;13.25;7.65;;;14.70;99.90;;;;;;5091418;28;20032;-66
2023/07/23 04:31:12;;;;;;;10.65;7.38;;;14.70;99.90;;;;;;5124647;28;20059;-65
2023/07/23 04:33:37;;;;;;;12.85;7.05;;;14.60;99.90;;;;;;5089868;28;20119;-65
2023/07/23 04:36:07;;;;;;;15.30;7.82;;;14.70;99.90;;;;;;5124483;28;20607;-65
2023/07/23 04:38:33;;;;;;;13.85;7.70;;;14.70;99.90;;;;;;5090885;28;20032;-65
2023/07/23 04:40:59;;;;;;;13.32;7.72;;;14.70;99.90;;;;;;5090400;28;20591;-66
2023/07/23 04:43:30;;;;;;;11.82;7.25;;;14.70;99.90;;;;;;5091644;28;20044;-66
2023/07/23 04:45:56;;;;;;;12.23;8.23;;;14.80;99.90;;;;;;5072756;28;20074;-65
2023/07/23 04:48:22;;;;;;;10.65;7.30;;;14.80;99.90;;;;;;5090530;28;20477;-65
2023/07/23 04:50:58;;;;;;;12.50;8.43;;;14.70;99.90;;;;;;5094378;28;20404;-65
2023/07/23 04:53:24;;;;;;;11.75;7.50;;;14.70;99.90;;;;;;5093679;28;20052;-65
2023/07/23 04:55:54;;;;;;;12.77;8.23;;;14.80;99.90;;;;;;5093495;28;20525;-65
2023/07/23 04:58:20;;;;;;;14.40;7.97;;;14.80;99.90;;;;;;5077059;28;20075;-65
2023/07/23 05:00:46;;;;;;;11.98;7.05;;;14.80;99.90;;;;;;5092597;28;20040;-66
2023/07/23 05:03:12;;;;;;;12.10;8.02;;;14.70;99.90;;;;;;5076999;28;20554;-65
2023/07/23 05:05:40;;;;;;;14.25;8.25;;;14.80;99.90;;;;;;5094540;28;20101;-65
2023/07/23 05:08:05;;;;;;;14.35;7.97;;;14.80;99.90;;;;;;5094227;28;20032;-65
2023/07/23 05:10:31;;;;;;;12.40;8.10;;;14.80;99.90;;;;;;5094665;28;20051;-65
2023/07/23 05:12:57;;;;;;;11.57;7.35;;;14.80;99.90;;;;;;5127463;27;20101;-65
2023/07/23 05:15:22;;;;;;;12.68;7.38;;;14.80;99.90;;;;;;5094279;28;20570;-66
2023/07/23 05:17:48;;;;;;;12.68;8.48;;;14.80;99.90;;;;;;5127176;27;20044;-66
2023/07/23 05:20:15;;;;;;;11.88;7.57;;;14.90;99.90;;;;;;5127765;27;20088;-65
2023/07/23 05:22:41;;;;;;;13.10;8.00;;;14.90;99.90;;;;;;5092346;28;20044;-65
2023/07/23 05:25:08;;;;;;;10.90;7.90;;;14.90;99.90;;;;;;5094682;28;20400;-65
2023/07/23 05:27:34;;;;;;;14.73;7.97;;;14.90;99.90;;;;;;5076344;28;20062;-65
2023/07/23 05:30:00;;;;;;;11.82;6.85;;;14.80;99.90;;;;;;5093652;28;20036;-65
2023/07/23 05:32:26;;;;;;;13.27;8.10;;;14.90;99.90;;;;;;5094588;28;20401;-65
2023/07/23 05:34:53;;;;;;;12.52;7.88;;;14.80;99.90;;;;;;5092943;28;20043;-65
2023/07/23 05:37:19;;;;;;;10.98;7.43;;;14.90;99.90;;;;;;5094282;28;20046;-65
2023/07/23 05:39:45;;;;;;;12.63;6.93;;;14.80;99.90;;;;;;5093770;28;20119;-65
2023/07/23 05:42:11;;;;;;;13.20;7.05;;;14.90;99.90;;;;;;5092232;28;20163;-65
2023/07/23 05:44:37;;;;;;;11.52;7.65;;;14.80;99.90;;;;;;5094305;28;20447;-65
2023/07/23 05:47:03;;;;;;;12.68;7.45;;;14.90;99.90;;;;;;5092953;28;20044;-65
2023/07/23 05:49:28;;;;;;;13.02;7.93;;;14.80;99.90;;;;;;5091964;28;20080;-65
2023/07/23 05:51:54;;;;;;;10.70;6.95;;;14.80;99.90;;;;;;5093265;28;20176;-65
2023/07/23 05:54:20;;;;;;;12.35;7.80;;;14.90;99.90;;;;;;5076120;28;20075;-65
2023/07/23 05:56:46;;;;;;;13.23;8.02;;;14.80;99.90;;;;;;5092870;28;20389;-65
2023/07/23 05:59:11;;;;;;;15.82;8.70;;;14.90;99.90;;;;;;5094070;28;20043;-65
2023/07/23 06:01:37;;;;;;;12.88;8.05;;;14.80;99.90;;;;;;5092561;28;20044;-66
2023/07/23 06:04:03;;;;;;;12.70;7.93;;;14.90;99.90;;;;;;5092534;28;20090;-65
2023/07/23 06:06:29;;;;;;;13.95;8.07;;;14.80;99.90;;;;;;5093781;28;20036;-65
2023/07/23 06:08:56;;;;;;;14.95;8.63;;;14.90;99.90;;;;;;5092348;28;20046;-66
2023/07/23 06:11:21;;;;;;;16.60;8.98;;;14.90;99.90;;;;;;5093174;28;20036;-66
2023/07/23 06:13:47;;;;;;;11.93;8.18;;;14.90;99.90;;;;;;5091944;28;20806;-66
2023/07/23 06:16:13;;;;;;;13.50;7.88;;;14.90;99.90;;;;;;5092709;28;20048;-65
2023/07/23 06:18:39;;;;;;;14.93;7.95;;;15.00;99.90;;;;;;5092591;28;20405;-66
2023/07/23 06:21:04;;;;;;;17.23;8.40;;;15.00;99.90;;;;;;5093908;28;20396;-65
2023/07/23 06:23:32;;;;;;;14.63;8.70;;;15.00;99.90;;;;;;5075236;28;20040;-65
2023/07/23 06:25:58;;;;;;;12.27;8.05;;;15.00;99.90;;;;;;5091217;28;20165;-65
2023/07/23 06:28:24;;;;;;;13.38;8.35;;;15.00;99.90;;;;;;5093390;28;20127;-65
2023/07/23 06:30:50;;;;;;;16.20;9.15;;;15.00;99.90;;;;;;5091612;28;20044;-66
2023/07/23 06:33:16;;;;;;;17.92;9.15;;;15.00;99.90;;;;;;5091680;28;20511;-65
2023/07/23 06:35:46;;;;;;;14.13;8.65;;;15.00;99.90;;;;;;5091236;28;20048;-65
2023/07/23 06:38:12;;;;;;;13.52;8.05;;;15.00;99.90;;;;;;5092414;28;20036;-66
2023/07/23 06:40:48;;;;;;;14.32;7.97;;;15.00;99.90;;;;;;5092906;28;20040;-65
2023/07/23 06:43:14;;;;;;;16.08;9.63;;;15.10;99.90;;;;;;5075078;28;20048;-66
2023/07/23 06:45:40;;;;;;;13.43;8.73;;;15.10;99.90;;;;;;5073754;28;20097;-66
2023/07/23 06:48:06;;;;;;;13.60;7.75;;;15.20;99.90;;;;;;5126337;27;20052;-65
2023/07/23 06:50:31;;;;;;;12.18;8.73;;;15.20;99.90;;;;;;5092603;28;20112;-66
2023/07/23 06:52:58;;;;;;;13.52;9.35;;;15.10;99.90;;;;;;5124800;27;20370;-65
2023/07/23 06:55:24;;;;;;;12.43;8.82;;;15.20;99.90;;;;;;5074908;28;20058;-66
2023/07/23 06:57:49;;;;;;;14.05;9.15;;;15.20;99.90;;;;;;5091084;28;20044;-66
2023/07/23 07:00:16;;;;;;;13.63;8.48;;;15.30;99.90;;;;;;5122820;27;20035;-66
2023/07/23 07:02:42;;;;;;;13.88;8.98;;;15.30;99.90;;;;;;5090888;28;20064;-65
2023/07/23 07:05:08;;;;;;;13.20;8.55;;;15.40;99.90;;;;;;5093065;28;20393;-66
2023/07/23 07:07:35;;;;;;;13.20;8.27;;;15.30;99.90;;;;;;5090389;28;20397;-65
2023/07/23 07:10:14;;;;;;;15.50;9.52;;;15.40;99.90;;;;;;5090149;28;20100;-66
2023/07/23 07:12:40;;;;;;;14.93;9.15;;;15.30;99.90;;;;;;5084611;28;20075;-66
2023/07/23 07:15:06;;;;;;;13.18;9.20;;;15.40;99.90;;;;;;5090765;28;20080;-66
2023/07/23 07:17:32;;;;;;;21.65;10.27;;;15.50;99.90;;;;;;5091163;28;20046;-66
2023/07/23 07:19:58;;;;;;;15.13;10.73;;;15.50;99.90;;;;;;5071711;28;20851;-66
2023/07/23 07:22:23;;;;;;;16.95;9.63;;;15.40;99.90;;;;;;5068274;28;20173;-66
2023/07/23 07:24:49;;;;;;;17.33;10.50;;;15.40;99.90;;;;;;5069599;28;20118;-65
2023/07/23 07:27:16;;;;;;;15.02;10.43;;;15.40;99.90;;;;;;5069763;28;20048;-66
2023/07/23 07:29:43;;;;;;;14.80;9.75;;;15.40;99.90;;;;;;5087199;28;20054;-66
2023/07/23 07:32:09;;;;;;;14.18;9.80;;;15.50;99.90;;;;;;5088497;28;20051;-66
2023/07/23 07:34:35;;;;;;;17.30;10.07;;;15.50;99.90;;;;;;5088153;28;20036;-66
2023/07/23 07:37:02;;;;;;;12.50;8.93;;;15.60;99.90;;;;;;5088401;28;20484;-66
2023/07/23 07:39:29;;;;;;;15.55;10.05;;;15.50;99.90;;;;;;5122477;27;20141;-66
2023/07/23 07:41:56;;;;;;;17.58;11.57;;;15.60;99.90;;;;;;5069725;28;20734;-66
2023/07/23 07:44:22;;;;;;;16.48;10.65;;;15.60;99.90;;;;;;5087498;28;20374;-66
2023/07/23 07:46:48;;;;;;;14.57;9.55;;;15.60;99.90;;;;;;5087036;28;20046;-66
2023/07/23 07:49:14;;;;;;;17.95;11.52;;;15.60;99.90;;;;;;5087331;28;20396;-66
2023/07/23 07:51:43;;;;;;;17.15;11.07;;;15.60;99.90;;;;;;5087717;28;20393;-66
2023/07/23 07:54:09;;;;;;;17.85;11.43;;;15.70;99.90;;;;;;5100929;28;20058;-66
2023/07/23 07:56:35;;;;;;;16.52;10.48;;;15.70;99.90;;;;;;5101305;28;20514;-66
2023/07/23 07:59:04;;;;;;;16.58;11.13;;;15.70;99.90;;;;;;5087226;28;20036;-65
2023/07/23 08:01:30;;;;;;;16.70;11.57;;;15.70;99.90;;;;;;5070629;28;20487;-66
2023/07/23 08:03:56;;;;;;;17.73;11.90;;;15.70;99.90;;;;;;5087954;28;20040;-66
2023/07/23 08:06:22;;;;;;;15.95;11.75;;;15.70;99.90;;;;;;5087360;28;20385;-66
2023/07/23 08:08:50;;;;;;;19.50;11.52;;;15.70;99.90;;;;;;5079649;28;20036;-66
2023/07/23 08:11:16;;;;;;;17.33;12.63;;;15.70;99.90;;;;;;5103953;28;20093;-66
2023/07/23 08:13:43;;;;;;;19.15;12.23;;;15.80;99.90;;;;;;5091760;28;20039;-65
2023/07/23 08:16:10;;;;;;;16.65;12.43;;;15.80;99.90;;;;;;5088846;28;20447;-65
2023/07/23 08:18:36;;;;;;;18.52;11.63;;;15.90;99.90;;;;;;5087842;28;20555;-66
2023/07/23 08:21:02;;;;;;;17.30;11.98;;;15.80;99.90;;;;;;5107723;28;20051;-66
2023/07/23 08:23:28;;;;;;;18.08;12.85;;;15.90;99.90;;;;;;5087617;28;20123;-66
2023/07/23 08:25:59;;;;;;;18.98;13.25;;;15.90;99.90;;;;;;5092225;28;20115;-66
2023/07/23 08:28:29;;;;;;;17.45;13.20;;;15.90;99.90;;;;;;5076143;28;20032;-67
2023/07/23 08:30:56;;;;;;;17.88;11.82;;;15.90;99.90;;;;;;5092076;28;20044;-67
2023/07/23 08:33:29;;;;;;;16.80;12.82;;;15.90;99.90;;;;;;5091772;28;20048;-66
2023/07/23 08:35:57;;;;;;;16.10;12.50;;;15.90;99.90;;;;;;5090841;28;20446;-66
2023/07/23 08:38:24;;;;;;;17.77;13.35;;;15.90;99.90;;;;;;5090677;28;20497;-66
2023/07/23 08:41:03;;;;;;;17.25;12.60;;;16.00;99.90;;;;;;5092008;28;20472;-66
2023/07/23 08:43:52;;;;;;;17.90;13.95;;;16.10;99.90;;;;;;5097766;28;20039;-66
2023/07/23 08:46:30;;;;;;;17.08;14.13;;;16.10;99.90;;;;;;5110236;28;20388;-66
2023/07/23 08:48:58;;;;;;;16.52;13.90;;;16.10;99.90;;;;;;5091117;28;20033;-66
2023/07/23 08:51:45;;;;;;;18.17;13.82;;;16.10;99.90;;;;;;5090944;28;20048;-66
2023/07/23 08:54:12;;;;;;;18.67;14.30;;;16.10;99.90;;;;;;5090602;28;20515;-66
2023/07/23 08:56:40;;;;;;;17.20;14.77;;;16.10;99.90;;;;;;5090955;28;20047;-65
2023/07/23 08:59:08;;;;;;;17.83;15.10;;;16.20;99.90;;;;;;5073302;28;20044;-65
2023/07/23 09:01:35;;;;;;;19.27;15.15;;;16.20;99.90;;;;;;5089462;28;20047;-66
2023/07/23 09:04:03;;;;;;;16.70;14.60;;;16.20;99.90;;;;;;5087181;28;20036;-66
2023/07/23 09:06:30;;;;;;;19.40;16.58;;;16.30;99.90;;;;;;5087316;28;20186;-66
2023/07/23 09:09:10;;;;;;;20.10;16.27;;;16.30;99.90;;;;;;5101364;28;20028;-65
2023/07/23 09:11:36;;;;;;;19.88;15.70;;;16.20;99.90;;;;;;5084427;28;20123;-66
2023/07/23 09:14:11;;;;;;;22.70;16.75;;;16.20;99.90;;;;;;5090001;28;20142;-65
2023/07/23 09:16:39;;;;;;;17.23;14.68;;;16.30;99.90;;;;;;5077491;28;20130;-66
2023/07/23 09:19:07;;;;;;;16.67;14.70;;;16.30;99.90;;;;;;5072770;28;20044;-66
2023/07/23 09:21:34;;;;;;;17.08;14.25;;;16.30;99.90;;;;;;5090695;28;20208;-66
2023/07/23 09:24:04;;;;;;;18.42;14.98;;;16.20;99.90;;;;;;5089125;28;20047;-66
2023/07/23 09:26:31;;;;;;;17.88;14.85;;;16.30;99.90;;;;;;5089141;28;20040;-67
2023/07/23 09:28:59;;;;;;;17.25;13.55;;;16.30;99.90;;;;;;5089771;28;20063;-66
2023/07/23 09:31:30;;;;;;;17.80;15.40;;;16.20;99.90;;;;;;5092155;28;20043;-67
2023/07/23 09:33:59;;;;;;;17.38;14.38;;;16.20;99.90;;;;;;5072938;28;20142;-67
2023/07/23 09:36:26;;;;;;;19.00;13.77;;;16.30;99.90;;;;;;5092171;28;20133;-67
2023/07/23 09:39:02;;;;;;;19.35;16.02;;;16.30;99.90;;;;;;5090140;28;20040;-67
2023/07/23 09:41:32;;;;;;;17.08;13.73;;;16.30;99.90;;;;;;5092248;28;20051;-66
2023/07/23 09:44:05;;;;;;;21.45;14.45;;;16.30;99.90;;;;;;5122450;27;20130;-67
2023/07/23 09:46:31;;;;;;;20.45;14.43;;;16.30;99.90;;;;;;5119910;27;20620;-68
2023/07/23 09:48:57;;;;;;;20.15;14.80;;;16.30;99.90;;;;;;5072691;28;20051;-67
2023/07/23 09:51:23;;;;;;;18.38;14.70;;;16.30;99.90;;;;;;5089312;28;20044;-67
2023/07/23 09:53:49;;;;;;;19.42;13.68;;;16.30;99.90;;;;;;5089869;28;20040;-67
2023/07/23 09:56:16;;;;;;;18.92;14.02;;;16.30;99.90;;;;;;5089410;28;20051;-67
2023/07/23 09:58:44;;;;;;;17.92;14.55;;;16.40;99.90;;;;;;5089457;28;20043;-67
2023/07/23 10:01:11;;;;;;;18.35;13.85;;;16.40;99.90;;;;;;5091006;28;20035;-67
2023/07/23 10:03:38;;;;;;;19.98;16.50;;;16.40;99.90;;;;;;5089315;28;20044;-67
2023/07/23 10:06:05;;;;;;;20.63;16.00;;;16.40;99.90;;;;;;5089845;28;20413;-67
2023/07/23 10:08:34;;;;;;;23.50;16.63;;;16.40;99.90;;;;;;5089634;28;20051;-67
2023/07/23 10:11:00;;;;;;;21.25;16.90;;;16.50;99.90;;;;;;5088883;28;20458;-67
2023/07/23 10:13:27;;;;;;;22.30;16.17;;;16.40;99.90;;;;;;5090051;28;20122;-67
2023/07/23 10:15:53;;;;;;;18.45;14.70;;;16.40;99.90;;;;;;5089312;28;20040;-67
2023/07/23 10:18:22;;;;;;;21.33;15.85;;;16.50;99.90;;;;;;5071401;28;20416;-66
2023/07/23 10:20:48;;;;;;;24.52;15.00;;;16.50;99.90;;;;;;5088409;28;20499;-67
2023/07/23 10:23:15;;;;;;;22.95;18.02;;;16.50;99.90;;;;;;5088690;28;20051;-66
2023/07/23 10:25:40;;;;;;;23.15;17.00;;;16.60;99.90;;;;;;5073061;28;20048;-66
2023/07/23 10:28:08;;;;;;;21.02;15.63;;;16.50;99.90;;;;;;5088296;28;20162;-66
2023/07/23 10:30:36;;;;;;;22.10;16.80;;;16.60;99.90;;;;;;5074300;28;20047;-67
2023/07/23 10:33:11;;;;;;;21.33;16.15;;;16.70;99.90;;;;;;5102716;28;20551;-68
2023/07/23 10:35:55;;;;;;;21.20;15.50;;;16.70;99.90;;;;;;5093585;28;20476;-67
2023/07/23 10:38:23;;;;;;;20.63;15.35;;;16.80;99.90;;;;;;5088786;28;20043;-67
2023/07/23 10:40:50;;;;;;;20.17;16.08;;;16.80;99.90;;;;;;5090134;28;20044;-67
2023/07/23 10:43:16;;;;;;;19.25;14.35;;;16.80;99.90;;;;;;5090402;28;20039;-66
2023/07/23 10:45:49;;;;;;;18.45;14.15;;;16.90;99.90;;;;;;5094721;28;20104;-67
2023/07/23 10:48:17;;;;;;;22.83;15.43;;;16.90;99.90;;;;;;5088325;28;20044;-67
2023/07/23 10:51:05;;;;;;;20.17;16.02;;;17.00;99.90;;;;;;5089049;28;20081;-67
2023/07/23 10:53:31;;;;;;;19.98;14.85;;;17.00;99.90;;;;;;5087016;28;20087;-68
2023/07/23 10:56:00;;;;;;;23.15;16.52;;;17.00;99.90;;;;;;5088775;28;20115;-67
2023/07/23 10:58:27;;;;;;;18.10;14.20;;;17.00;99.90;;;;;;5069960;28;20093;-67
2023/07/23 11:00:59;;;;;;;19.33;14.60;;;17.00;99.90;;;;;;5087419;28;20097;-67
2023/07/23 11:03:26;;;;;;;20.35;15.10;;;17.10;99.90;;;;;;5103077;27;20098;-66
2023/07/23 11:05:52;;;;;;;19.45;14.45;;;17.10;99.90;;;;;;5101410;28;20051;-66
2023/07/23 11:08:26;;;;;;;19.95;14.57;;;17.10;99.90;;;;;;5078763;28;20388;-66
2023/07/23 11:11:02;;;;;;;17.38;13.30;;;17.10;99.90;;;;;;5088402;28;20412;-66
2023/07/23 11:13:30;;;;;;;19.65;15.43;;;17.20;99.90;;;;;;5087421;28;20044;-66
2023/07/23 11:15:56;;;;;;;20.42;15.15;;;17.20;99.90;;;;;;5071118;28;20093;-66
2023/07/23 11:18:23;;;;;;;17.98;14.15;;;17.20;99.90;;;;;;5093743;28;20032;-66
2023/07/23 11:20:53;;;;;;;17.98;13.90;;;17.10;99.90;;;;;;5089170;28;20559;-66
2023/07/23 11:23:22;;;;;;;18.50;14.43;;;17.20;99.90;;;;;;5089020;28;20035;-66
2023/07/23 11:25:49;;;;;;;20.55;15.02;;;17.10;99.90;;;;;;5087784;28;20113;-66
2023/07/23 11:28:20;;;;;;;19.17;15.23;;;17.10;99.90;;;;;;5086782;28;20123;-66
2023/07/23 11:30:50;;;;;;;20.55;15.43;;;17.10;99.90;;;;;;5089448;28;20134;-66
2023/07/23 11:33:17;;;;;;;17.35;13.93;;;17.20;99.90;;;;;;5077124;28;20075;-66
2023/07/23 11:35:43;;;;;;;16.23;13.02;;;17.10;99.90;;;;;;5070064;28;20043;-66
2023/07/23 11:38:09;;;;;;;18.88;13.98;;;17.00;99.90;;;;;;5090562;28;20056;-66
2023/07/23 11:40:36;;;;;;;19.60;13.93;;;17.00;99.90;;;;;;5095438;28;20032;-67
2023/07/23 11:43:06;;;;;;;18.98;15.07;;;16.90;99.90;;;;;;5083504;28;20031;-66
2023/07/23 11:45:46;;;;;;;19.38;14.98;;;16.90;99.90;;;;;;5110524;28;20399;-66
2023/07/23 11:48:16;;;;;;;19.30;14.88;;;16.90;99.90;;;;;;5110114;28;20488;-66
2023/07/23 11:50:42;;;;;;;16.60;13.77;;;16.90;99.90;;;;;;5108520;28;20139;-66
2023/07/23 11:53:07;;;;;;;18.83;14.57;;;16.90;99.90;;;;;;5110673;28;20123;-67
2023/07/23 11:55:33;;;;;;;17.30;13.88;;;16.80;99.90;;;;;;5108123;28;20083;-66
2023/07/23 11:58:00;;;;;;;17.33;13.68;;;16.80;99.90;;;;;;5108222;28;20089;-66
2023/07/23 12:00:37;;;;;;;16.83;13.52;;;16.90;99.90;;;;;;5112808;28;20763;-62
2023/07/23 12:03:07;;;;;;;16.90;13.15;;;16.90;99.90;;;;;;5075226;28;20044;-62
2023/07/23 12:05:33;;;;;;;20.45;14.95;;;16.90;99.90;;;;;;5092655;28;20047;-62
2023/07/23 12:07:59;;;;;;;16.80;14.20;;;16.90;99.90;;;;;;5092366;28;20039;-62
2023/07/23 12:10:28;;;;;;;19.50;14.63;;;17.00;99.90;;;;;;5091406;28;20039;-62
2023/07/23 12:12:54;;;;;;;18.67;14.98;;;17.00;99.90;;;;;;5090067;28;20134;-62
2023/07/23 12:15:20;;;;;;;17.38;13.13;;;17.00;99.90;;;;;;5092595;28;20040;-62
2023/07/23 12:17:46;;;;;;;20.65;14.13;;;17.10;99.90;;;;;;5092172;28;20442;-62
2023/07/23 12:20:18;;;;;;;17.95;14.77;;;17.10;99.90;;;;;;5092989;28;20040;-62
2023/07/23 12:22:54;;;;;;;16.63;13.68;;;17.20;99.90;;;;;;5092715;28;20090;-62
2023/07/23 12:25:21;;;;;;;15.52;12.70;;;17.20;99.90;;;;;;5096616;28;20054;-63
2023/07/23 12:27:47;;;;;;;18.25;13.45;;;17.20;99.90;;;;;;5092761;28;20400;-62
2023/07/23 12:30:13;;;;;;;16.52;12.30;;;17.20;99.90;;;;;;5090537;28;20048;-62
2023/07/23 12:32:39;;;;;;;17.17;12.90;;;17.30;99.90;;;;;;5092257;28;20432;-61